createdAt,value
2022-11-18T00:02:11.462Z,10.18
2022-11-18T00:04:38.379Z,10.95
2022-11-18T00:07:05.707Z,11.98
2022-11-18T00:09:32.958Z,13.68
2022-11-18T00:12:18.344Z,11.10
2022-11-18T00:14:45.593Z,9.52
2022-11-18T00:17:12.565Z,11.82
2022-11-18T00:19:40.430Z,10.45
2022-11-18T00:22:11.199Z,11.10
2022-11-18T00:24:38.110Z,8.43
2022-11-18T00:27:05.315Z,9.60
2022-11-18T00:29:32.228Z,10.57
2022-11-18T00:31:59.520Z,11.27
2022-11-18T00:34:26.870Z,13.55
2022-11-18T00:36:53.751Z,8.65
2022-11-18T00:39:21.633Z,11.35
2022-11-18T00:42:07.950Z,10.23
2022-11-18T00:44:35.632Z,13.23
2022-11-18T00:47:03.009Z,12.05
2022-11-18T00:49:30.253Z,9.85
2022-11-18T00:51:57.353Z,11.60
2022-11-18T00:54:24.279Z,13.27
2022-11-18T00:56:51.121Z,50.47
2022-11-18T00:59:18.352Z,13.63
2022-11-18T01:01:45.927Z,12.82
2022-11-18T01:04:13.047Z,9.82
2022-11-18T01:06:40.505Z,9.50
2022-11-18T01:09:07.525Z,9.65
2022-11-18T01:11:53.294Z,11.93
2022-11-18T01:14:20.154Z,8.27
2022-11-18T01:16:51.357Z,9.95
2022-11-18T01:19:19.731Z,9.95
2022-11-18T01:21:47.141Z,9.32
2022-11-18T01:24:14.218Z,9.50
2022-11-18T01:26:41.441Z,10.30
2022-11-18T01:29:08.772Z,9.05
2022-11-18T01:31:42.259Z,11.88
2022-11-18T01:34:22.668Z,9.15
2022-11-18T01:36:49.881Z,9.10
2022-11-18T01:39:16.915Z,14.32
2022-11-18T01:41:43.942Z,17.13
2022-11-18T01:44:48.015Z,12.68
2022-11-18T01:47:15.237Z,12.18
2022-11-18T01:49:42.818Z,7.95
2022-11-18T01:52:10.453Z,11.02
2022-11-18T01:54:42.362Z,8.63
2022-11-18T01:57:14.892Z,9.27
2022-11-18T01:59:44.234Z,8.60
2022-11-18T02:02:14.265Z,10.88
2022-11-18T02:04:44.881Z,10.27
2022-11-18T02:07:13.191Z,8.32
2022-11-18T02:09:40.415Z,9.18
2022-11-18T02:12:08.697Z,10.02
2022-11-18T02:14:40.475Z,7.70
2022-11-18T02:18:04.203Z,9.25
2022-11-18T02:20:39.520Z,12.50
2022-11-18T02:23:27.785Z,9.73
2022-11-18T02:26:03.045Z,11.13
2022-11-18T02:28:30.244Z,11.52
2022-11-18T02:31:02.326Z,9.63
2022-11-18T02:33:38.578Z,11.47
2022-11-18T02:36:36.922Z,12.60
2022-11-18T02:39:09.097Z,12.02
2022-11-18T02:41:39.604Z,10.03
2022-11-18T02:44:12.517Z,12.10
2022-11-18T02:46:40.930Z,10.50
2022-11-18T02:49:16.385Z,8.52
2022-11-18T02:51:45.374Z,10.85
2022-11-18T02:54:13.735Z,10.50
2022-11-18T02:56:41.578Z,11.30
2022-11-18T02:59:08.411Z,10.80
2022-11-18T03:01:36.776Z,12.13
2022-11-18T03:04:04.417Z,13.25
2022-11-18T03:06:31.593Z,10.13
2022-11-18T03:09:26.082Z,14.40
2022-11-18T03:12:37.674Z,10.30
2022-11-18T03:15:24.183Z,11.93
2022-11-18T03:18:17.845Z,11.85
2022-11-18T03:20:59.063Z,11.02
2022-11-18T03:23:34.613Z,10.65
2022-11-18T03:26:10.918Z,10.52
2022-11-18T03:28:49.336Z,13.32
2022-11-18T03:31:46.358Z,11.23
2022-11-18T03:34:29.786Z,11.90
2022-11-18T03:37:05.149Z,9.27
2022-11-18T03:39:39.156Z,11.25
2022-11-18T03:42:23.925Z,11.65
2022-11-18T03:45:03.902Z,11.35
2022-11-18T03:47:36.219Z,10.73
2022-11-18T03:50:26.482Z,10.45
2022-11-18T03:52:55.060Z,10.80
2022-11-18T03:55:27.744Z,10.52
2022-11-18T03:58:13.734Z,9.57
2022-11-18T04:00:47.904Z,12.38
2022-11-18T04:03:15.351Z,9.25
2022-11-18T04:05:43.715Z,49.50
2022-11-18T04:08:22.217Z,13.63
2022-11-18T04:10:55.619Z,11.20
2022-11-18T04:13:27.137Z,12.65
2022-11-18T04:15:54.635Z,10.73
2022-11-18T04:18:22.455Z,12.98
2022-11-18T04:20:49.320Z,14.68
2022-11-18T04:23:16.528Z,10.65
2022-11-18T04:25:43.787Z,10.75
2022-11-18T04:28:10.646Z,11.23
2022-11-18T04:30:37.676Z,14.80
2022-11-18T04:33:05.320Z,12.00
2022-11-18T04:35:32.152Z,8.88
2022-11-18T04:37:59.003Z,13.65
2022-11-18T04:40:26.246Z,11.75
2022-11-18T04:42:53.463Z,12.40
2022-11-18T04:45:20.705Z,13.43
2022-11-18T04:47:47.566Z,10.52
2022-11-18T04:50:14.811Z,10.65
2022-11-18T04:52:42.099Z,13.07
2022-11-18T04:55:09.150Z,12.98
2022-11-18T04:57:36.420Z,11.15
2022-11-18T05:00:03.818Z,11.07
2022-11-18T05:02:30.680Z,13.48
2022-11-18T05:04:57.941Z,13.40
2022-11-18T05:07:25.254Z,11.68
2022-11-18T05:09:52.520Z,11.38
2022-11-18T05:12:37.794Z,18.65
2022-11-18T05:15:05.027Z,10.75
2022-11-18T05:17:34.452Z,12.98
2022-11-18T05:20:01.339Z,12.98
2022-11-18T05:22:28.559Z,16.50
2022-11-18T05:24:55.432Z,13.52
2022-11-18T05:27:22.317Z,14.23
2022-11-18T05:29:49.602Z,12.05
2022-11-18T05:32:16.560Z,14.52
2022-11-18T05:34:43.676Z,17.10
2022-11-18T05:37:11.178Z,14.48
2022-11-18T05:39:38.566Z,12.15
2022-11-18T05:42:24.762Z,13.95
2022-11-18T05:44:57.796Z,12.57
2022-11-18T05:47:25.828Z,13.32
2022-11-18T05:49:53.080Z,17.02
2022-11-18T05:52:19.964Z,11.80
2022-11-18T05:54:50.793Z,20.20
2022-11-18T05:57:18.117Z,18.10
2022-11-18T05:59:45.064Z,22.60
2022-11-18T06:02:17.102Z,22.30
2022-11-18T06:04:48.710Z,22.95
2022-11-18T06:07:21.460Z,20.00
2022-11-18T06:09:52.039Z,18.17
2022-11-18T06:12:24.182Z,24.27
2022-11-18T06:14:59.442Z,17.07
2022-11-18T06:17:31.625Z,22.33
2022-11-18T06:19:59.480Z,13.00
2022-11-18T06:22:26.755Z,13.70
2022-11-18T06:24:54.291Z,17.00
2022-11-18T06:27:21.633Z,17.88
2022-11-18T06:29:48.467Z,17.08
2022-11-18T06:32:15.707Z,21.73
2022-11-18T06:34:42.538Z,23.17
2022-11-18T06:37:16.919Z,16.55
2022-11-18T06:39:44.214Z,19.15
2022-11-18T06:42:11.503Z,17.02
2022-11-18T06:44:38.772Z,13.95
2022-11-18T06:47:06.173Z,21.70
2022-11-18T06:49:33.144Z,12.93
2022-11-18T06:51:59.994Z,12.63
2022-11-18T06:54:26.925Z,10.65
2022-11-18T06:56:54.174Z,13.63
2022-11-18T06:59:23.962Z,11.68
2022-11-18T07:01:53.282Z,16.05
2022-11-18T07:04:20.590Z,11.80
2022-11-18T07:06:47.902Z,18.13
2022-11-18T07:09:15.475Z,14.77
2022-11-18T07:11:42.902Z,15.40
2022-11-18T07:14:10.489Z,13.73
2022-11-18T07:16:37.814Z,13.25
2022-11-18T07:19:13.110Z,33.50
2022-11-18T07:21:40.849Z,17.08
2022-11-18T07:24:08.788Z,14.20
2022-11-18T07:26:36.180Z,12.48
2022-11-18T07:29:04.318Z,13.60
2022-11-18T07:31:31.697Z,15.63
2022-11-18T07:33:59.017Z,15.43
2022-11-18T07:36:34.069Z,15.45
2022-11-18T07:39:03.966Z,12.05
2022-11-18T07:41:31.355Z,12.90
2022-11-18T07:44:01.069Z,12.20
2022-11-18T07:46:30.621Z,13.43
2022-11-18T07:48:59.457Z,14.52
2022-11-18T07:51:28.641Z,13.80
2022-11-18T07:53:56.138Z,13.98
2022-11-18T07:56:23.884Z,16.50
2022-11-18T07:58:55.713Z,14.20
2022-11-18T08:01:31.067Z,17.23
2022-11-18T08:04:04.729Z,14.63
2022-11-18T08:06:33.125Z,11.73
2022-11-18T08:08:59.968Z,12.90
2022-11-18T08:11:27.360Z,13.45
2022-11-18T08:13:54.620Z,16.42
2022-11-18T08:16:24.406Z,11.98
2022-11-18T08:18:52.466Z,13.52
2022-11-18T08:21:21.314Z,14.05
2022-11-18T08:23:53.103Z,16.58
2022-11-18T08:26:20.940Z,13.88
2022-11-18T08:28:49.248Z,21.85
2022-11-18T08:31:19.032Z,13.75
2022-11-18T08:33:46.514Z,15.88
2022-11-18T08:36:16.882Z,18.35
2022-11-18T08:38:44.507Z,52.67
2022-11-18T08:41:16.822Z,16.92
2022-11-18T08:43:43.839Z,15.68
2022-11-18T08:46:11.077Z,15.35
2022-11-18T08:48:38.015Z,15.13
2022-11-18T08:51:05.390Z,17.23
2022-11-18T08:53:33.059Z,33.60
2022-11-18T08:56:01.196Z,20.83
2022-11-18T08:58:28.458Z,20.02
2022-11-18T09:00:55.556Z,13.98
2022-11-18T09:03:22.832Z,15.35
2022-11-18T09:05:50.080Z,19.00
2022-11-18T09:08:17.467Z,15.00
2022-11-18T09:10:44.754Z,15.63
2022-11-18T09:16:08.732Z,15.13
2022-11-18T09:18:36.207Z,19.67
2022-11-18T09:21:06.516Z,137.30
2022-11-18T09:23:35.521Z,24.92
2022-11-18T09:26:08.727Z,22.25
2022-11-18T09:28:36.202Z,17.13
2022-11-18T09:31:08.063Z,22.58
2022-11-18T09:33:36.045Z,15.48
2022-11-18T09:36:03.368Z,22.23
2022-11-18T09:38:31.708Z,17.70
2022-11-18T09:41:07.225Z,20.02
2022-11-18T09:43:53.975Z,18.65
2022-11-18T09:46:48.514Z,19.88
2022-11-18T09:49:37.242Z,21.80
2022-11-18T09:52:34.301Z,17.70
2022-11-18T09:55:14.524Z,23.05
2022-11-18T09:57:41.777Z,19.92
2022-11-18T10:00:22.934Z,18.92
2022-11-18T10:03:06.661Z,20.08
2022-11-18T10:05:57.072Z,22.42
2022-11-18T10:08:45.621Z,24.67
2022-11-18T10:11:17.553Z,21.85
2022-11-18T10:14:08.562Z,24.58
2022-11-18T10:16:35.769Z,23.83
2022-11-18T10:19:03.893Z,25.52
2022-11-18T10:21:59.545Z,21.30
2022-11-18T10:24:41.205Z,28.33
2022-11-18T10:27:15.980Z,26.35
2022-11-18T10:29:44.602Z,27.23
2022-11-18T10:32:14.582Z,40.63
2022-11-18T10:34:53.627Z,27.27
2022-11-18T10:37:34.477Z,26.45
2022-11-18T10:40:28.383Z,25.20
2022-11-18T10:42:55.767Z,24.65
2022-11-18T10:45:22.558Z,27.48
2022-11-18T10:48:18.347Z,27.52
2022-11-18T10:50:55.455Z,24.33
2022-11-18T10:53:29.726Z,28.00
2022-11-18T10:56:11.389Z,27.55
2022-11-18T10:58:43.352Z,28.77
2022-11-18T11:01:16.284Z,23.83
2022-11-18T11:03:52.247Z,25.45
2022-11-18T11:06:31.221Z,28.48
2022-11-18T11:09:24.958Z,26.98
2022-11-18T11:11:59.586Z,26.63
2022-11-18T11:14:37.539Z,22.45
2022-11-18T11:17:12.452Z,25.58
2022-11-18T11:19:52.081Z,26.80
2022-11-18T11:22:19.309Z,26.17
2022-11-18T11:24:46.608Z,27.48
2022-11-18T11:30:19.963Z,30.92
2022-11-18T11:32:47.201Z,29.65
2022-11-18T11:35:22.463Z,30.92
2022-11-18T11:38:00.797Z,27.85
2022-11-18T11:40:35.129Z,29.10
2022-11-18T11:43:23.676Z,39.15
2022-11-18T11:46:14.515Z,32.97
2022-11-18T11:48:50.232Z,28.92
2022-11-18T11:51:52.336Z,32.65
2022-11-18T11:54:38.719Z,30.90
2022-11-18T11:57:13.979Z,38.80
2022-11-18T12:00:24.439Z,29.85
2022-11-18T12:03:44.940Z,30.42
2022-11-18T12:09:20.143Z,40.58
2022-11-18T12:12:00.801Z,31.42
2022-11-18T12:14:39.832Z,32.28
2022-11-18T12:17:12.060Z,30.20
2022-11-18T12:19:39.892Z,30.85
2022-11-18T12:22:07.161Z,31.50
2022-11-18T12:24:42.627Z,31.77
2022-11-18T12:27:35.096Z,29.20
2022-11-18T12:30:04.098Z,28.83
2022-11-18T12:32:46.913Z,29.92
2022-11-18T12:35:13.992Z,31.33
2022-11-18T12:37:40.823Z,33.10
2022-11-18T12:40:09.898Z,28.23
2022-11-18T12:43:07.759Z,33.33
2022-11-18T12:45:43.941Z,34.55
2022-11-18T12:48:29.395Z,34.65
2022-11-18T12:51:19.536Z,33.35
2022-11-18T12:53:48.565Z,33.00
2022-11-18T12:56:18.227Z,35.65
2022-11-18T12:58:53.174Z,34.33
2022-11-18T13:01:25.470Z,30.65
2022-11-18T13:03:52.966Z,39.10
2022-11-18T13:06:29.619Z,34.53
2022-11-18T13:09:00.243Z,36.53
2022-11-18T13:11:44.829Z,34.83
2022-11-18T13:14:46.319Z,42.70
2022-11-18T13:17:53.173Z,44.85
2022-11-18T13:20:35.480Z,60.38
2022-11-18T13:23:35.903Z,36.10
2022-11-18T13:26:12.967Z,31.35
2022-11-18T13:28:42.924Z,33.33
2022-11-18T13:31:15.905Z,40.50
2022-11-18T13:33:42.921Z,30.00
2022-11-18T13:36:18.202Z,38.95
2022-11-18T13:38:59.111Z,38.80
2022-11-18T13:41:32.855Z,33.35
2022-11-18T13:44:13.100Z,37.85
2022-11-18T13:46:41.873Z,36.92
2022-11-18T13:49:16.671Z,37.83
2022-11-18T13:51:44.255Z,31.27
2022-11-18T13:54:16.291Z,32.67
2022-11-18T13:56:43.661Z,36.30
2022-11-18T13:59:20.111Z,33.25
2022-11-18T14:01:52.773Z,37.10
2022-11-18T14:04:26.375Z,33.75
2022-11-18T14:06:53.666Z,37.20
2022-11-18T14:09:30.552Z,43.22
2022-11-18T14:12:01.524Z,37.55
2022-11-18T14:14:34.212Z,35.25
2022-11-18T14:17:20.955Z,41.60
2022-11-18T14:19:50.520Z,38.42
2022-11-18T14:22:21.583Z,38.10
2022-11-18T14:25:03.887Z,33.33
2022-11-18T14:27:45.435Z,39.72
2022-11-18T14:30:32.550Z,39.55
2022-11-18T14:33:11.384Z,34.92
2022-11-18T14:35:39.474Z,39.28
2022-11-18T14:38:40.671Z,40.80
2022-11-18T14:41:41.084Z,38.10
2022-11-18T14:44:10.771Z,39.75
2022-11-18T14:46:38.540Z,41.25
2022-11-18T14:49:10.220Z,34.78
2022-11-18T14:51:37.444Z,32.50
2022-11-18T14:54:04.813Z,69.72
2022-11-18T14:56:33.996Z,36.30
2022-11-18T14:59:00.948Z,48.22
2022-11-18T15:01:30.998Z,33.95
2022-11-18T15:03:58.217Z,32.67
2022-11-18T15:06:25.455Z,39.47
2022-11-18T15:08:53.577Z,38.30
2022-11-18T15:11:20.852Z,35.97
2022-11-18T15:13:48.301Z,33.38
2022-11-18T15:16:22.401Z,38.47
2022-11-18T15:18:51.629Z,37.17
2022-11-18T15:21:19.162Z,32.20
2022-11-18T15:23:46.478Z,35.60
2022-11-18T15:26:23.426Z,38.50
2022-11-18T15:28:52.586Z,35.38
2022-11-18T15:31:20.188Z,38.85
2022-11-18T15:33:49.905Z,41.03
2022-11-18T15:36:22.015Z,40.75
2022-11-18T15:38:49.894Z,41.77
2022-11-18T15:41:23.667Z,40.25
2022-11-18T15:43:51.150Z,43.08
2022-11-18T15:46:20.165Z,44.50
2022-11-18T15:48:48.355Z,44.63
2022-11-18T15:51:16.005Z,42.13
2022-11-18T15:53:42.930Z,45.88
2022-11-18T15:56:19.125Z,46.10
2022-11-18T15:58:57.178Z,65.50
2022-11-18T16:01:25.935Z,45.03
2022-11-18T16:03:53.013Z,50.70
2022-11-18T16:06:19.891Z,42.60
2022-11-18T16:08:46.793Z,47.97
2022-11-18T16:11:33.567Z,48.67
2022-11-18T16:14:09.465Z,45.75
2022-11-18T16:16:37.430Z,53.20
2022-11-18T16:19:09.628Z,56.40
2022-11-18T16:21:38.928Z,50.53
2022-11-18T16:24:08.122Z,55.67
2022-11-18T16:26:37.194Z,52.40
2022-11-18T16:29:04.960Z,51.03
2022-11-18T16:31:40.799Z,46.03
2022-11-18T16:34:26.999Z,43.55
2022-11-18T16:36:57.040Z,44.72
2022-11-18T16:39:26.532Z,48.92
2022-11-18T16:41:55.198Z,49.45
2022-11-18T16:44:22.378Z,50.38
2022-11-18T16:46:51.719Z,41.22
2022-11-18T16:49:21.665Z,47.25
2022-11-18T16:51:51.930Z,43.45
2022-11-18T16:54:21.071Z,43.80
2022-11-18T16:56:49.189Z,44.28
2022-11-18T16:59:18.631Z,53.10
2022-11-18T17:01:45.731Z,49.13
2022-11-18T17:04:12.866Z,48.28
2022-11-18T17:06:40.088Z,46.63
2022-11-18T17:09:07.983Z,47.92
2022-11-18T17:11:35.056Z,59.60
2022-11-18T17:14:01.921Z,47.38
2022-11-18T17:16:28.865Z,50.88
2022-11-18T17:19:00.257Z,42.25
2022-11-18T17:21:28.670Z,43.38
2022-11-18T17:23:56.338Z,45.10
2022-11-18T17:26:25.903Z,44.95
2022-11-18T17:28:54.621Z,49.67
2022-11-18T17:31:23.392Z,50.55
2022-11-18T17:33:53.140Z,45.35
2022-11-18T17:36:22.089Z,45.45
2022-11-18T17:38:51.505Z,49.50
2022-11-18T17:41:40.034Z,44.95
2022-11-18T17:44:08.680Z,46.97
2022-11-18T17:46:38.255Z,45.00
2022-11-18T17:49:07.915Z,42.63
2022-11-18T17:51:34.804Z,47.80
2022-11-18T17:54:01.666Z,43.00
2022-11-18T17:56:28.574Z,48.78
2022-11-18T17:58:55.766Z,47.13
2022-11-18T18:01:23.509Z,54.58
2022-11-18T18:03:50.630Z,46.42
2022-11-18T18:06:19.190Z,51.00
2022-11-18T18:08:46.155Z,52.17
2022-11-18T18:11:18.387Z,52.50
2022-11-18T18:14:04.469Z,49.10
2022-11-18T18:16:33.615Z,54.60
2022-11-18T18:19:02.116Z,52.83
2022-11-18T18:21:29.690Z,47.58
2022-11-18T18:23:56.770Z,50.33
2022-11-18T18:26:29.698Z,51.80
2022-11-18T18:28:59.653Z,40.95
2022-11-18T18:31:26.890Z,39.97
2022-11-18T18:33:53.761Z,38.10
2022-11-18T18:36:21.421Z,37.30
2022-11-18T18:38:48.527Z,38.03
2022-11-18T18:41:21.303Z,35.58
2022-11-18T18:43:49.016Z,34.15
2022-11-18T18:46:30.905Z,32.30
2022-11-18T18:49:13.711Z,32.42
2022-11-18T18:51:44.658Z,33.07
2022-11-18T18:54:15.086Z,33.40
2022-11-18T18:56:42.909Z,31.52
2022-11-18T18:59:09.898Z,30.60
2022-11-18T19:01:37.821Z,30.60
2022-11-18T19:04:06.740Z,50.97
2022-11-18T19:09:23.316Z,35.25
2022-11-18T19:12:09.472Z,44.08
2022-11-18T19:14:36.420Z,36.35
2022-11-18T19:17:09.939Z,33.80
2022-11-18T19:19:58.590Z,42.97
2022-11-18T19:22:25.923Z,36.53
2022-11-18T19:24:53.521Z,38.92
2022-11-18T19:27:21.032Z,41.15
2022-11-18T19:29:48.025Z,37.72
2022-11-18T19:32:15.440Z,36.97
2022-11-18T19:34:42.726Z,34.60
2022-11-18T19:37:09.598Z,51.08
2022-11-18T19:39:38.351Z,37.85
2022-11-18T19:42:05.370Z,38.67
2022-11-18T19:44:32.624Z,36.17
2022-11-18T19:46:59.535Z,33.28
2022-11-18T19:49:26.778Z,35.10
2022-11-18T19:51:54.069Z,30.60
2022-11-18T19:54:20.965Z,33.47
2022-11-18T19:56:48.183Z,35.80
2022-11-18T19:59:15.074Z,72.20
2022-11-18T20:01:42.054Z,46.97
2022-11-18T20:04:09.374Z,35.28
2022-11-18T20:06:37.421Z,32.22
2022-11-18T20:09:08.034Z,34.72
2022-11-18T20:11:35.307Z,32.65
2022-11-18T20:14:02.381Z,30.30
2022-11-18T20:16:29.655Z,32.15
2022-11-18T20:19:06.348Z,30.13
2022-11-18T20:21:38.992Z,31.98
2022-11-18T20:24:07.548Z,30.52
2022-11-18T20:26:37.086Z,35.17
2022-11-18T20:29:05.191Z,32.05
2022-11-18T20:31:35.530Z,33.50
2022-11-18T20:34:03.208Z,31.77
2022-11-18T20:36:35.982Z,34.75
2022-11-18T20:39:11.508Z,35.65
2022-11-18T20:41:38.911Z,41.97
2022-11-18T20:44:06.113Z,34.25
2022-11-18T20:46:34.449Z,32.10
2022-11-18T20:49:01.764Z,34.17
2022-11-18T20:51:29.395Z,31.42
2022-11-18T20:53:57.580Z,34.17
2022-11-18T20:56:26.354Z,30.75
2022-11-18T20:58:53.408Z,36.42
2022-11-18T21:01:23.954Z,32.55
2022-11-18T21:03:57.350Z,32.50
2022-11-18T21:06:26.624Z,27.25
2022-11-18T21:08:59.857Z,28.98
2022-11-18T21:11:27.467Z,28.30
2022-11-18T21:14:15.992Z,28.40
2022-11-18T21:16:45.937Z,28.88
2022-11-18T21:19:13.068Z,33.50
2022-11-18T21:21:48.072Z,31.38
2022-11-18T21:24:15.321Z,27.40
2022-11-18T21:26:42.916Z,26.42
2022-11-18T21:29:11.548Z,23.90
2022-11-18T21:31:39.280Z,24.35
2022-11-18T21:34:06.832Z,27.48
2022-11-18T21:36:34.230Z,20.63
2022-11-18T21:39:02.094Z,62.80
2022-11-18T21:41:29.930Z,31.88
2022-11-18T21:44:05.598Z,22.63
2022-11-18T21:46:34.900Z,22.27
2022-11-18T21:49:02.595Z,26.42
2022-11-18T21:51:31.607Z,27.00
2022-11-18T21:53:59.466Z,20.75
2022-11-18T21:56:31.425Z,19.23
2022-11-18T21:59:00.525Z,19.20
2022-11-18T22:01:29.601Z,18.48
2022-11-18T22:03:59.206Z,17.33
2022-11-18T22:06:29.841Z,17.63
2022-11-18T22:08:57.114Z,18.73
2022-11-18T22:11:25.678Z,17.08
2022-11-18T22:13:53.360Z,159.55
2022-11-18T22:16:22.909Z,56.25
2022-11-18T22:18:56.996Z,17.52
2022-11-18T22:21:26.693Z,14.55
2022-11-18T22:23:58.626Z,14.98
2022-11-18T22:26:25.926Z,14.02
2022-11-18T22:28:54.671Z,13.40
2022-11-18T22:31:23.098Z,14.23
2022-11-18T22:33:51.465Z,17.88
2022-11-18T22:36:20.870Z,14.10
2022-11-18T22:38:48.100Z,20.92
2022-11-18T22:41:36.535Z,16.67
2022-11-18T22:44:07.716Z,19.80
2022-11-18T22:46:36.505Z,15.60
2022-11-18T22:49:03.969Z,17.88
2022-11-18T22:51:31.020Z,17.08
2022-11-18T22:54:22.924Z,19.83
2022-11-18T22:56:45.576Z,22.27
2022-11-18T22:59:12.814Z,19.95
2022-11-18T23:01:40.120Z,17.15
2022-11-18T23:04:07.320Z,19.63
2022-11-18T23:06:34.240Z,19.40
2022-11-18T23:09:01.460Z,18.23
2022-11-18T23:11:47.302Z,17.50
2022-11-18T23:14:14.386Z,19.88
2022-11-18T23:16:42.676Z,17.77
2022-11-18T23:19:14.658Z,18.33
2022-11-18T23:21:42.748Z,16.75
2022-11-18T23:24:18.141Z,18.48
2022-11-18T23:26:46.223Z,17.40
2022-11-18T23:29:14.617Z,19.92
2022-11-18T23:31:43.704Z,19.48
2022-11-18T23:34:12.695Z,18.38
2022-11-18T23:36:40.100Z,17.83
2022-11-18T23:39:07.433Z,17.80
2022-11-18T23:41:34.379Z,16.33
2022-11-18T23:44:01.435Z,20.98
2022-11-18T23:46:28.673Z,20.10
2022-11-18T23:48:55.601Z,17.13
2022-11-18T23:51:23.865Z,16.25
2022-11-18T23:53:55.821Z,26.40
2022-11-18T23:56:25.541Z,19.33
2022-11-18T23:58:54.332Z,17.23
